Morganville, Kansas
Current Conditions -  °F | °C
As of 9:55 PM on Thursday 18 Dec 2014 (Local Time) from KCNK Reporting Station
Haze Haze  
Wind Chill: 24°   Ceiling: 1300
Heat Index: 29°   Visibility: 6mi
Dew Point: 26°   Wind: 5mph
Humidity: 89%   Direction: 210°SSW
Pressure: 30.23"   Gusts: NA
Location:  39.47°N, 97.2°W
Report Text: KCNK 190355Z AUTO 21004KT 6SM BR BKN013 OVC028 M02/M03 A3023 RMK AO2 SLP253 T10171033
Loading
Personal Weather Stations






























Interactive Weather Map New forecast layout! Learn more

10-Day Weather Forecast

Advertisements
Track Severe Weather on mobile